sensor_id;sensor_type;location;lat;lon;timestamp;pressure;altitude;pressure_sealevel;temperature;humidity
18858;BME280;9558;50.178;8.370;2022-08-19T00:00:49;97908.53;;;20.49;75.02
18858;BME280;9558;50.178;8.370;2022-08-19T00:03:16;97906.13;;;20.47;75.57
18858;BME280;9558;50.178;8.370;2022-08-19T00:05:43;97906.63;;;20.44;75.36
18858;BME280;9558;50.178;8.370;2022-08-19T00:08:09;97915.56;;;20.43;75.90
18858;BME280;9558;50.178;8.370;2022-08-19T00:10:37;97919.50;;;20.41;75.92
18858;BME280;9558;50.178;8.370;2022-08-19T00:13:04;97934.19;;;20.42;75.75
18858;BME280;9558;50.178;8.370;2022-08-19T00:15:30;97934.19;;;20.42;75.74
18858;BME280;9558;50.178;8.370;2022-08-19T00:17:57;97942.34;;;20.40;75.40
18858;BME280;9558;50.178;8.370;2022-08-19T00:20:24;97931.81;;;20.40;75.56
18858;BME280;9558;50.178;8.370;2022-08-19T00:22:50;97930.22;;;20.39;75.32
18858;BME280;9558;50.178;8.370;2022-08-19T00:25:18;97930.22;;;20.39;75.64
18858;BME280;9558;50.178;8.370;2022-08-19T00:27:45;97924.97;;;20.39;75.51
18858;BME280;9558;50.178;8.370;2022-08-19T00:30:13;97919.94;;;20.37;75.91
18858;BME280;9558;50.178;8.370;2022-08-19T00:32:40;97923.91;;;20.35;75.83
18858;BME280;9558;50.178;8.370;2022-08-19T00:35:07;97920.19;;;20.36;75.64
18858;BME280;9558;50.178;8.370;2022-08-19T00:37:35;97922.28;;;20.34;76.00
18858;BME280;9558;50.178;8.370;2022-08-19T00:40:05;97916.25;;;20.33;75.83
18858;BME280;9558;50.178;8.370;2022-08-19T00:42:32;97910.19;;;20.33;76.36
18858;BME280;9558;50.178;8.370;2022-08-19T00:45:00;97914.41;;;20.34;76.30
18858;BME280;9558;50.178;8.370;2022-08-19T00:47:26;97904.94;;;20.33;76.14
18858;BME280;9558;50.178;8.370;2022-08-19T00:49:56;97904.94;;;20.33;75.93
18858;BME280;9558;50.178;8.370;2022-08-19T00:52:26;97900.16;;;20.30;75.92
18858;BME280;9558;50.178;8.370;2022-08-19T00:54:56;97907.03;;;20.31;76.33
18858;BME280;9558;50.178;8.370;2022-08-19T00:57:27;97903.81;;;20.29;76.31
18858;BME280;9558;50.178;8.370;2022-08-19T00:59:55;97901.19;;;20.29;76.40
18858;BME280;9558;50.178;8.370;2022-08-19T01:02:24;97906.94;;;20.26;76.18
18858;BME280;9558;50.178;8.370;2022-08-19T01:04:51;97890.06;;;20.22;76.57
18858;BME280;9558;50.178;8.370;2022-08-19T01:07:18;97892.69;;;20.22;76.77
18858;BME280;9558;50.178;8.370;2022-08-19T01:09:45;97888.25;;;20.22;76.75
18858;BME280;9558;50.178;8.370;2022-08-19T01:12:11;97885.88;;;20.20;76.67
18858;BME280;9558;50.178;8.370;2022-08-19T01:14:39;97882.69;;;20.18;76.77
18858;BME280;9558;50.178;8.370;2022-08-19T01:17:08;97876.66;;;20.18;76.96
18858;BME280;9558;50.178;8.370;2022-08-19T01:19:38;97872.66;;;20.15;77.30
18858;BME280;9558;50.178;8.370;2022-08-19T01:22:08;97875.53;;;20.14;77.16
18858;BME280;9558;50.178;8.370;2022-08-19T01:24:38;97874.72;;;20.13;77.24
18858;BME280;9558;50.178;8.370;2022-08-19T01:27:06;97865.78;;;20.09;77.37
18858;BME280;9558;50.178;8.370;2022-08-19T01:29:33;97873.66;;;20.09;77.73
18858;BME280;9558;50.178;8.370;2022-08-19T01:32:03;97866.81;;;20.08;77.92
18858;BME280;9558;50.178;8.370;2022-08-19T01:34:30;97873.09;;;20.07;77.90
18858;BME280;9558;50.178;8.370;2022-08-19T01:36:59;97862.84;;;20.06;77.96
18858;BME280;9558;50.178;8.370;2022-08-19T01:39:27;97871.75;;;20.05;78.02
18858;BME280;9558;50.178;8.370;2022-08-19T01:41:55;97865.72;;;20.04;77.93
18858;BME280;9558;50.178;8.370;2022-08-19T01:44:22;97864.09;;;20.03;78.12
18858;BME280;9558;50.178;8.370;2022-08-19T01:46:51;97863.56;;;20.01;78.39
18858;BME280;9558;50.178;8.370;2022-08-19T01:49:20;97860.13;;;20.00;78.52
18858;BME280;9558;50.178;8.370;2022-08-19T01:51:47;97865.88;;;19.97;78.75
18858;BME280;9558;50.178;8.370;2022-08-19T01:54:17;97872.44;;;19.95;79.23
18858;BME280;9558;50.178;8.370;2022-08-19T01:56:44;97876.56;;;19.91;78.67
18858;BME280;9558;50.178;8.370;2022-08-19T01:59:14;97887.31;;;19.89;78.84
18858;BME280;9558;50.178;8.370;2022-08-19T02:01:41;97894.63;;;19.87;79.37
18858;BME280;9558;50.178;8.370;2022-08-19T02:04:08;97888.84;;;19.85;79.10
18858;BME280;9558;50.178;8.370;2022-08-19T02:06:34;97886.91;;;19.80;80.50
18858;BME280;9558;50.178;8.370;2022-08-19T02:09:02;97881.34;;;19.77;80.40
18858;BME280;9558;50.178;8.370;2022-08-19T02:11:32;97878.97;;;19.75;80.42
18858;BME280;9558;50.178;8.370;2022-08-19T02:14:00;97884.69;;;19.72;80.57
18858;BME280;9558;50.178;8.370;2022-08-19T02:16:29;97888.28;;;19.66;80.68
18858;BME280;9558;50.178;8.370;2022-08-19T02:18:56;97890.84;;;19.61;80.65
18858;BME280;9558;50.178;8.370;2022-08-19T02:21:26;97895.22;;;19.55;80.98
18858;BME280;9558;50.178;8.370;2022-08-19T02:23:53;97899.59;;;19.49;81.31
18858;BME280;9558;50.178;8.370;2022-08-19T02:26:20;97910.81;;;19.45;81.46
18858;BME280;9558;50.178;8.370;2022-08-19T02:28:47;97902.06;;;19.39;81.40
18858;BME280;9558;50.178;8.370;2022-08-19T02:31:16;97905.72;;;19.38;81.38
18858;BME280;9558;50.178;8.370;2022-08-19T02:33:45;97907.94;;;19.29;81.66
18858;BME280;9558;50.178;8.370;2022-08-19T02:36:14;97908.19;;;19.28;82.12
18858;BME280;9558;50.178;8.370;2022-08-19T02:38:41;97906.50;;;19.22;82.05
18858;BME280;9558;50.178;8.370;2022-08-19T02:41:13;97910.16;;;19.21;82.21
18858;BME280;9558;50.178;8.370;2022-08-19T02:43:40;97911.69;;;19.16;82.93
18858;BME280;9558;50.178;8.370;2022-08-19T02:46:14;97905.31;;;19.12;82.55
18858;BME280;9558;50.178;8.370;2022-08-19T02:48:44;97909.97;;;19.10;82.83
18858;BME280;9558;50.178;8.370;2022-08-19T02:51:16;97900.44;;;19.04;83.92
18858;BME280;9558;50.178;8.370;2022-08-19T02:53:42;97906.16;;;19.01;83.13
18858;BME280;9558;50.178;8.370;2022-08-19T02:56:09;97908.69;;;18.96;82.97
18858;BME280;9558;50.178;8.370;2022-08-19T02:58:36;97907.81;;;18.90;82.98
18858;BME280;9558;50.178;8.370;2022-08-19T03:01:02;97901.22;;;18.88;83.56
18858;BME280;9558;50.178;8.370;2022-08-19T03:03:29;97914.19;;;18.82;83.39
18858;BME280;9558;50.178;8.370;2022-08-19T03:06:09;97906.22;;;18.77;83.77
18858;BME280;9558;50.178;8.370;2022-08-19T03:08:38;97910.34;;;18.73;84.15
18858;BME280;9558;50.178;8.370;2022-08-19T03:11:05;97910.28;;;18.68;84.29
18858;BME280;9558;50.178;8.370;2022-08-19T03:13:32;97906.53;;;18.64;84.63
18858;BME280;9558;50.178;8.370;2022-08-19T03:15:59;97901.75;;;18.61;84.61
18858;BME280;9558;50.178;8.370;2022-08-19T03:18:25;97908.50;;;18.57;84.73
18858;BME280;9558;50.178;8.370;2022-08-19T03:20:52;97895.28;;;18.52;84.99
18858;BME280;9558;50.178;8.370;2022-08-19T03:23:22;97904.44;;;18.49;85.02
18858;BME280;9558;50.178;8.370;2022-08-19T03:25:51;97894.84;;;18.43;85.44
18858;BME280;9558;50.178;8.370;2022-08-19T03:28:19;97895.78;;;18.37;85.13
18858;BME280;9558;50.178;8.370;2022-08-19T03:30:58;97901.72;;;18.32;85.54
18858;BME280;9558;50.178;8.370;2022-08-19T03:33:26;97900.84;;;18.26;85.87
18858;BME280;9558;50.178;8.370;2022-08-19T03:36:00;97903.56;;;18.20;87.39
18858;BME280;9558;50.178;8.370;2022-08-19T03:38:29;97896.66;;;18.13;86.63
18858;BME280;9558;50.178;8.370;2022-08-19T03:40:57;97897.09;;;18.10;86.85
18858;BME280;9558;50.178;8.370;2022-08-19T03:43:24;97892.31;;;18.07;87.39
18858;BME280;9558;50.178;8.370;2022-08-19T03:45:59;97894.50;;;17.99;87.92
18858;BME280;9558;50.178;8.370;2022-08-19T03:48:28;97886.88;;;17.97;87.73
18858;BME280;9558;50.178;8.370;2022-08-19T03:50:56;97901.44;;;17.93;88.24
18858;BME280;9558;50.178;8.370;2022-08-19T03:53:24;97902.88;;;17.89;88.03
18858;BME280;9558;50.178;8.370;2022-08-19T03:55:53;97900.19;;;17.84;88.48
18858;BME280;9558;50.178;8.370;2022-08-19T03:58:20;97911.13;;;17.81;88.62
18858;BME280;9558;50.178;8.370;2022-08-19T04:00:46;97904.16;;;17.74;88.75
18858;BME280;9558;50.178;8.370;2022-08-19T04:03:13;97917.13;;;17.69;88.67
18858;BME280;9558;50.178;8.370;2022-08-19T04:05:39;97916.00;;;17.65;89.03
18858;BME280;9558;50.178;8.370;2022-08-19T04:08:06;97918.50;;;17.60;89.30
18858;BME280;9558;50.178;8.370;2022-08-19T04:10:35;97920.53;;;17.58;89.74
18858;BME280;9558;50.178;8.370;2022-08-19T04:13:04;97918.59;;;17.53;89.63
18858;BME280;9558;50.178;8.370;2022-08-19T04:15:32;97919.84;;;17.51;90.18
18858;BME280;9558;50.178;8.370;2022-08-19T04:18:04;97920.31;;;17.48;90.34
18858;BME280;9558;50.178;8.370;2022-08-19T04:20:33;97916.78;;;17.42;90.49
18858;BME280;9558;50.178;8.370;2022-08-19T04:22:59;97913.56;;;17.40;90.64
18858;BME280;9558;50.178;8.370;2022-08-19T04:25:26;97910.63;;;17.36;90.65
18858;BME280;9558;50.178;8.370;2022-08-19T04:27:52;97911.88;;;17.34;91.19
18858;BME280;9558;50.178;8.370;2022-08-19T04:30:20;97915.72;;;17.31;91.22
18858;BME280;9558;50.178;8.370;2022-08-19T04:32:47;97906.50;;;17.28;91.78
18858;BME280;9558;50.178;8.370;2022-08-19T04:35:16;97906.16;;;17.25;92.05
18858;BME280;9558;50.178;8.370;2022-08-19T04:37:42;97908.19;;;17.23;92.20
18858;BME280;9558;50.178;8.370;2022-08-19T04:40:10;97908.66;;;17.20;92.39
18858;BME280;9558;50.178;8.370;2022-08-19T04:42:59;97917.09;;;17.22;92.12
18858;BME280;9558;50.178;8.370;2022-08-19T04:45:27;97919.56;;;17.17;92.43
18858;BME280;9558;50.178;8.370;2022-08-19T04:47:55;97921.94;;;17.18;93.01
18858;BME280;9558;50.178;8.370;2022-08-19T04:50:22;97926.81;;;17.15;92.83
18858;BME280;9558;50.178;8.370;2022-08-19T04:52:50;97925.25;;;17.14;93.44
18858;BME280;9558;50.178;8.370;2022-08-19T04:55:17;97917.97;;;17.16;93.79
18858;BME280;9558;50.178;8.370;2022-08-19T04:57:43;97919.78;;;17.15;93.75
18858;BME280;9558;50.178;8.370;2022-08-19T05:00:10;97926.41;;;17.18;93.91
18858;BME280;9558;50.178;8.370;2022-08-19T05:02:38;97929.56;;;17.20;93.84
18858;BME280;9558;50.178;8.370;2022-08-19T05:05:06;97933.09;;;17.25;94.31
18858;BME280;9558;50.178;8.370;2022-08-19T05:07:32;97944.72;;;17.30;93.67
18858;BME280;9558;50.178;8.370;2022-08-19T05:09:59;97945.06;;;17.33;93.95
18858;BME280;9558;50.178;8.370;2022-08-19T05:12:26;97947.03;;;17.38;93.80
18858;BME280;9558;50.178;8.370;2022-08-19T05:14:54;97944.06;;;17.46;94.15
18858;BME280;9558;50.178;8.370;2022-08-19T05:17:22;97942.72;;;17.55;94.39
18858;BME280;9558;50.178;8.370;2022-08-19T05:19:49;97937.81;;;17.59;94.13
18858;BME280;9558;50.178;8.370;2022-08-19T05:22:33;97931.25;;;17.68;93.99
18858;BME280;9558;50.178;8.370;2022-08-19T05:25:03;97939.53;;;17.77;94.32
18858;BME280;9558;50.178;8.370;2022-08-19T05:27:31;97940.22;;;17.84;94.00
18858;BME280;9558;50.178;8.370;2022-08-19T05:29:58;97944.16;;;17.93;94.53
18858;BME280;9558;50.178;8.370;2022-08-19T05:32:24;97939.69;;;18.06;93.48
18858;BME280;9558;50.178;8.370;2022-08-19T05:34:52;97932.38;;;18.20;93.48
18858;BME280;9558;50.178;8.370;2022-08-19T05:37:19;97935.78;;;18.32;92.97
18858;BME280;9558;50.178;8.370;2022-08-19T05:39:46;97938.38;;;18.44;92.58
18858;BME280;9558;50.178;8.370;2022-08-19T05:42:14;97932.31;;;18.55;92.62
18858;BME280;9558;50.178;8.370;2022-08-19T05:44:43;97940.25;;;18.72;92.23
18858;BME280;9558;50.178;8.370;2022-08-19T05:47:12;97936.78;;;18.83;91.69
18858;BME280;9558;50.178;8.370;2022-08-19T05:49:40;97938.91;;;18.98;91.51
18858;BME280;9558;50.178;8.370;2022-08-19T05:52:12;97934.41;;;19.11;90.55
18858;BME280;9558;50.178;8.370;2022-08-19T05:54:40;97940.13;;;19.25;90.14
18858;BME280;9558;50.178;8.370;2022-08-19T05:57:08;97939.59;;;19.40;89.86
18858;BME280;9558;50.178;8.370;2022-08-19T05:59:35;97952.97;;;19.55;89.26
18858;BME280;9558;50.178;8.370;2022-08-19T06:02:03;97937.13;;;19.67;88.30
18858;BME280;9558;50.178;8.370;2022-08-19T06:04:32;97944.69;;;19.80;88.18
18858;BME280;9558;50.178;8.370;2022-08-19T06:06:58;97949.00;;;19.87;86.84
18858;BME280;9558;50.178;8.370;2022-08-19T06:09:28;97962.03;;;19.98;86.53
18858;BME280;9558;50.178;8.370;2022-08-19T06:11:56;97960.34;;;20.09;86.18
18858;BME280;9558;50.178;8.370;2022-08-19T06:14:26;97970.41;;;20.17;85.63
18858;BME280;9558;50.178;8.370;2022-08-19T06:16:53;97972.09;;;20.24;85.35
18858;BME280;9558;50.178;8.370;2022-08-19T06:19:22;97980.13;;;20.34;84.76
18858;BME280;9558;50.178;8.370;2022-08-19T06:21:51;97978.63;;;20.43;84.43
18858;BME280;9558;50.178;8.370;2022-08-19T06:24:21;97976.09;;;20.48;83.29
18858;BME280;9558;50.178;8.370;2022-08-19T06:26:52;97981.88;;;20.50;83.47
18858;BME280;9558;50.178;8.370;2022-08-19T06:29:22;97978.91;;;20.64;82.74
18858;BME280;9558;50.178;8.370;2022-08-19T06:31:51;97993.22;;;20.73;82.89
18858;BME280;9558;50.178;8.370;2022-08-19T06:34:19;97988.63;;;20.85;82.10
18858;BME280;9558;50.178;8.370;2022-08-19T06:36:48;97995.03;;;20.95;81.46
18858;BME280;9558;50.178;8.370;2022-08-19T06:39:20;97996.25;;;21.09;80.78
18858;BME280;9558;50.178;8.370;2022-08-19T06:41:51;97999.63;;;21.32;79.97
18858;BME280;9558;50.178;8.370;2022-08-19T06:44:21;98000.78;;;21.46;79.21
18858;BME280;9558;50.178;8.370;2022-08-19T06:46:48;98008.66;;;21.68;78.16
18858;BME280;9558;50.178;8.370;2022-08-19T06:49:16;98018.06;;;21.91;77.32
18858;BME280;9558;50.178;8.370;2022-08-19T06:51:44;98013.00;;;22.22;75.82
18858;BME280;9558;50.178;8.370;2022-08-19T06:54:12;98020.03;;;22.54;74.94
18858;BME280;9558;50.178;8.370;2022-08-19T06:56:40;98008.53;;;22.86;73.41
18858;BME280;9558;50.178;8.370;2022-08-19T06:59:12;98003.41;;;23.22;72.25
18858;BME280;9558;50.178;8.370;2022-08-19T07:01:41;98015.03;;;23.68;70.52
18858;BME280;9558;50.178;8.370;2022-08-19T07:04:08;98017.16;;;24.07;69.46
18858;BME280;9558;50.178;8.370;2022-08-19T07:06:36;98019.69;;;24.53;67.52
18858;BME280;9558;50.178;8.370;2022-08-19T07:09:04;98024.28;;;24.97;66.49
18858;BME280;9558;50.178;8.370;2022-08-19T07:11:31;98022.94;;;25.50;64.85
18858;BME280;9558;50.178;8.370;2022-08-19T07:13:59;98028.69;;;25.92;61.08
18858;BME280;9558;50.178;8.370;2022-08-19T07:16:29;98024.53;;;26.39;60.97
18858;BME280;9558;50.178;8.370;2022-08-19T07:18:56;98030.06;;;26.91;58.80
18858;BME280;9558;50.178;8.370;2022-08-19T07:21:25;98030.50;;;27.36;57.49
18858;BME280;9558;50.178;8.370;2022-08-19T07:23:54;98028.44;;;27.66;55.71
18858;BME280;9558;50.178;8.370;2022-08-19T07:26:23;98028.97;;;28.01;55.03
18858;BME280;9558;50.178;8.370;2022-08-19T07:28:51;98029.88;;;28.38;54.29
18858;BME280;9558;50.178;8.370;2022-08-19T07:31:20;98035.91;;;28.72;52.88
18858;BME280;9558;50.178;8.370;2022-08-19T07:33:50;98034.84;;;29.09;51.72
18858;BME280;9558;50.178;8.370;2022-08-19T07:36:27;98035.41;;;29.34;50.50
18858;BME280;9558;50.178;8.370;2022-08-19T07:38:59;98026.53;;;29.47;49.92
18858;BME280;9558;50.178;8.370;2022-08-19T07:41:28;98022.91;;;29.66;49.05
18858;BME280;9558;50.178;8.370;2022-08-19T07:43:57;98019.00;;;29.72;48.74
18858;BME280;9558;50.178;8.370;2022-08-19T07:46:24;98019.66;;;29.78;48.70
18858;BME280;9558;50.178;8.370;2022-08-19T07:48:53;98028.47;;;29.78;47.18
18858;BME280;9558;50.178;8.370;2022-08-19T07:51:21;98025.91;;;29.96;47.56
18858;BME280;9558;50.178;8.370;2022-08-19T07:53:48;98030.97;;;30.06;47.37
18858;BME280;9558;50.178;8.370;2022-08-19T07:56:15;98020.81;;;30.08;46.55
18858;BME280;9558;50.178;8.370;2022-08-19T07:58:44;98027.88;;;30.13;46.43
18858;BME280;9558;50.178;8.370;2022-08-19T08:01:14;98024.78;;;30.20;46.81
18858;BME280;9558;50.178;8.370;2022-08-19T08:03:42;98023.00;;;30.15;46.46
18858;BME280;9558;50.178;8.370;2022-08-19T08:06:27;98029.97;;;30.25;46.02
18858;BME280;9558;50.178;8.370;2022-08-19T08:09:11;98039.88;;;30.24;46.55
18858;BME280;9558;50.178;8.370;2022-08-19T08:11:45;98039.22;;;30.19;46.25
18858;BME280;9558;50.178;8.370;2022-08-19T08:14:14;98028.19;;;30.11;46.41
18858;BME280;9558;50.178;8.370;2022-08-19T08:16:41;98036.06;;;30.16;46.81
18858;BME280;9558;50.178;8.370;2022-08-19T08:19:09;98046.59;;;30.22;46.55
18858;BME280;9558;50.178;8.370;2022-08-19T08:21:37;98044.31;;;30.06;46.86
18858;BME280;9558;50.178;8.370;2022-08-19T08:24:04;98054.44;;;29.87;46.75
18858;BME280;9558;50.178;8.370;2022-08-19T08:26:31;98060.47;;;29.78;47.19
18858;BME280;9558;50.178;8.370;2022-08-19T08:28:57;98058.19;;;29.63;47.89
18858;BME280;9558;50.178;8.370;2022-08-19T08:31:24;98059.19;;;29.30;48.44
18858;BME280;9558;50.178;8.370;2022-08-19T08:33:50;98068.75;;;29.18;48.09
18858;BME280;9558;50.178;8.370;2022-08-19T08:36:17;98067.63;;;29.24;48.61
18858;BME280;9558;50.178;8.370;2022-08-19T08:38:45;98065.09;;;29.41;48.03
18858;BME280;9558;50.178;8.370;2022-08-19T08:41:18;98068.72;;;29.45;47.54
18858;BME280;9558;50.178;8.370;2022-08-19T08:43:48;98069.75;;;29.36;47.94
18858;BME280;9558;50.178;8.370;2022-08-19T08:46:21;98075.59;;;29.24;47.87
18858;BME280;9558;50.178;8.370;2022-08-19T08:48:53;98080.13;;;29.09;48.34
18858;BME280;9558;50.178;8.370;2022-08-19T08:51:24;98076.53;;;28.77;48.81
18858;BME280;9558;50.178;8.370;2022-08-19T08:53:55;98067.69;;;28.68;49.57
18858;BME280;9558;50.178;8.370;2022-08-19T08:56:22;98074.44;;;28.47;49.92
18858;BME280;9558;50.178;8.370;2022-08-19T08:58:51;98072.13;;;28.12;50.44
18858;BME280;9558;50.178;8.370;2022-08-19T09:01:20;98077.25;;;28.08;51.19
18858;BME280;9558;50.178;8.370;2022-08-19T09:03:48;98072.72;;;28.09;51.14
18858;BME280;9558;50.178;8.370;2022-08-19T09:06:22;98080.25;;;28.21;51.09
18858;BME280;9558;50.178;8.370;2022-08-19T09:09:01;98067.84;;;28.44;50.76
18858;BME280;9558;50.178;8.370;2022-08-19T09:11:39;98065.88;;;28.50;50.35
18858;BME280;9558;50.178;8.370;2022-08-19T09:14:15;98073.00;;;28.68;50.03
18858;BME280;9558;50.178;8.370;2022-08-19T09:16:46;98080.06;;;29.01;49.58
18858;BME280;9558;50.178;8.370;2022-08-19T09:19:13;98076.16;;;29.21;48.65
18858;BME280;9558;50.178;8.370;2022-08-19T09:21:41;98073.00;;;29.33;48.35
18858;BME280;9558;50.178;8.370;2022-08-19T09:24:08;98068.72;;;29.45;48.47
18858;BME280;9558;50.178;8.370;2022-08-19T09:26:35;98068.28;;;29.52;48.23
18858;BME280;9558;50.178;8.370;2022-08-19T09:29:02;98068.47;;;29.56;46.84
18858;BME280;9558;50.178;8.370;2022-08-19T09:31:31;98067.75;;;29.41;47.66
18858;BME280;9558;50.178;8.370;2022-08-19T09:33:58;98063.75;;;29.30;47.69
18858;BME280;9558;50.178;8.370;2022-08-19T09:36:27;98056.56;;;29.17;48.08
18858;BME280;9558;50.178;8.370;2022-08-19T09:38:58;98054.38;;;29.05;47.74
18858;BME280;9558;50.178;8.370;2022-08-19T09:41:26;98057.56;;;28.93;48.32
18858;BME280;9558;50.178;8.370;2022-08-19T09:43:57;98049.69;;;28.88;48.88
18858;BME280;9558;50.178;8.370;2022-08-19T09:46:25;98051.47;;;28.92;49.11
18858;BME280;9558;50.178;8.370;2022-08-19T09:48:53;98043.38;;;28.84;49.13
18858;BME280;9558;50.178;8.370;2022-08-19T09:51:22;98041.44;;;28.75;48.99
18858;BME280;9558;50.178;8.370;2022-08-19T09:53:50;98037.97;;;28.61;48.94
18858;BME280;9558;50.178;8.370;2022-08-19T09:56:20;98035.31;;;28.47;48.67
18858;BME280;9558;50.178;8.370;2022-08-19T09:58:48;98038.66;;;28.39;49.47
18858;BME280;9558;50.178;8.370;2022-08-19T10:01:17;98027.81;;;28.35;50.33
18858;BME280;9558;50.178;8.370;2022-08-19T10:03:47;98041.59;;;28.37;50.08
18858;BME280;9558;50.178;8.370;2022-08-19T10:06:14;98035.88;;;28.30;49.54
18858;BME280;9558;50.178;8.370;2022-08-19T10:08:41;98030.75;;;28.20;49.02
18858;BME280;9558;50.178;8.370;2022-08-19T10:11:08;98029.00;;;28.15;49.38
18858;BME280;9558;50.178;8.370;2022-08-19T10:13:36;98034.09;;;28.12;49.35
18858;BME280;9558;50.178;8.370;2022-08-19T10:16:06;98030.53;;;28.02;49.23
18858;BME280;9558;50.178;8.370;2022-08-19T10:18:34;98032.69;;;28.00;49.39
18858;BME280;9558;50.178;8.370;2022-08-19T10:21:07;98024.22;;;27.98;49.17
18858;BME280;9558;50.178;8.370;2022-08-19T10:23:35;98020.63;;;27.89;49.20
18858;BME280;9558;50.178;8.370;2022-08-19T10:26:02;98025.63;;;27.76;48.43
18858;BME280;9558;50.178;8.370;2022-08-19T10:28:32;98027.44;;;27.62;48.59
18858;BME280;9558;50.178;8.370;2022-08-19T10:31:05;98023.28;;;27.56;47.95
18858;BME280;9558;50.178;8.370;2022-08-19T10:33:32;98015.97;;;27.48;47.68
18858;BME280;9558;50.178;8.370;2022-08-19T10:36:00;98022.47;;;27.41;47.94
18858;BME280;9558;50.178;8.370;2022-08-19T10:38:27;98009.16;;;27.41;48.58
18858;BME280;9558;50.178;8.370;2022-08-19T10:40:55;98013.41;;;27.42;48.54
18858;BME280;9558;50.178;8.370;2022-08-19T10:43:22;98025.91;;;27.42;48.36
18858;BME280;9558;50.178;8.370;2022-08-19T10:45:52;98014.72;;;27.45;48.25
18858;BME280;9558;50.178;8.370;2022-08-19T10:48:20;98021.88;;;27.45;47.92
18858;BME280;9558;50.178;8.370;2022-08-19T10:50:47;98008.53;;;27.50;48.49
18858;BME280;9558;50.178;8.370;2022-08-19T10:53:31;98011.50;;;27.62;48.63
18858;BME280;9558;50.178;8.370;2022-08-19T10:55:57;98010.06;;;27.70;48.74
18858;BME280;9558;50.178;8.370;2022-08-19T10:58:41;98016.72;;;27.67;47.56
18858;BME280;9558;50.178;8.370;2022-08-19T11:01:08;98011.13;;;27.69;47.40
18858;BME280;9558;50.178;8.370;2022-08-19T11:03:36;98007.59;;;27.73;47.70
18858;BME280;9558;50.178;8.370;2022-08-19T11:06:04;98009.38;;;27.78;48.09
18858;BME280;9558;50.178;8.370;2022-08-19T11:08:32;98003.47;;;27.81;47.75
18858;BME280;9558;50.178;8.370;2022-08-19T11:11:01;98004.84;;;27.79;47.60
18858;BME280;9558;50.178;8.370;2022-08-19T11:13:28;98001.72;;;27.76;47.29
18858;BME280;9558;50.178;8.370;2022-08-19T11:15:57;97997.34;;;27.67;47.48
18858;BME280;9558;50.178;8.370;2022-08-19T11:18:23;97997.88;;;27.50;46.94
18858;BME280;9558;50.178;8.370;2022-08-19T11:20:52;97992.56;;;27.50;47.29
18858;BME280;9558;50.178;8.370;2022-08-19T11:23:19;97997.19;;;27.44;47.09
18858;BME280;9558;50.178;8.370;2022-08-19T11:25:46;98000.31;;;27.46;46.88
18858;BME280;9558;50.178;8.370;2022-08-19T11:28:12;97993.72;;;27.44;46.93
18858;BME280;9558;50.178;8.370;2022-08-19T11:30:40;98000.03;;;27.48;47.00
18858;BME280;9558;50.178;8.370;2022-08-19T11:33:07;97994.84;;;27.56;46.69
18858;BME280;9558;50.178;8.370;2022-08-19T11:35:39;97986.50;;;27.63;46.85
18858;BME280;9558;50.178;8.370;2022-08-19T11:38:07;97981.28;;;27.72;47.16
18858;BME280;9558;50.178;8.370;2022-08-19T11:40:33;97970.75;;;27.81;46.79
18858;BME280;9558;50.178;8.370;2022-08-19T11:43:00;97971.75;;;27.85;45.24
18858;BME280;9558;50.178;8.370;2022-08-19T11:45:27;97975.34;;;27.94;46.12
18858;BME280;9558;50.178;8.370;2022-08-19T11:47:54;97974.75;;;27.97;45.51
18858;BME280;9558;50.178;8.370;2022-08-19T11:50:22;97966.72;;;28.02;45.47
18858;BME280;9558;50.178;8.370;2022-08-19T11:52:49;97954.66;;;28.05;44.75
18858;BME280;9558;50.178;8.370;2022-08-19T11:55:18;97958.50;;;27.99;44.32
18858;BME280;9558;50.178;8.370;2022-08-19T11:57:45;97949.75;;;27.98;44.06
18858;BME280;9558;50.178;8.370;2022-08-19T12:00:13;97951.09;;;27.96;43.87
18858;BME280;9558;50.178;8.370;2022-08-19T12:02:40;97942.81;;;27.83;44.12
18858;BME280;9558;50.178;8.370;2022-08-19T12:05:07;97940.25;;;27.92;44.42
18858;BME280;9558;50.178;8.370;2022-08-19T12:07:34;97942.81;;;27.97;44.29
18858;BME280;9558;50.178;8.370;2022-08-19T12:10:01;97929.34;;;28.07;44.53
18858;BME280;9558;50.178;8.370;2022-08-19T12:12:29;97941.47;;;28.14;44.04
18858;BME280;9558;50.178;8.370;2022-08-19T12:14:56;97942.56;;;28.13;43.87
18858;BME280;9558;50.178;8.370;2022-08-19T12:17:24;97946.91;;;28.08;43.86
18858;BME280;9558;50.178;8.370;2022-08-19T12:19:51;97954.97;;;28.03;43.95
18858;BME280;9558;50.178;8.370;2022-08-19T12:22:18;97950.63;;;28.07;44.63
18858;BME280;9558;50.178;8.370;2022-08-19T12:24:46;97941.47;;;28.14;43.85
18858;BME280;9558;50.178;8.370;2022-08-19T12:27:13;97950.03;;;28.24;43.70
18858;BME280;9558;50.178;8.370;2022-08-19T12:29:41;97955.34;;;28.38;42.80
18858;BME280;9558;50.178;8.370;2022-08-19T12:32:07;97956.22;;;28.48;42.82
18858;BME280;9558;50.178;8.370;2022-08-19T12:34:34;97960.19;;;28.64;42.92
18858;BME280;9558;50.178;8.370;2022-08-19T12:37:04;97952.88;;;28.70;41.60
18858;BME280;9558;50.178;8.370;2022-08-19T12:39:34;97943.00;;;28.70;40.20
18858;BME280;9558;50.178;8.370;2022-08-19T12:42:01;97950.88;;;28.75;40.51
18858;BME280;9558;50.178;8.370;2022-08-19T12:44:28;97947.91;;;28.77;38.88
18858;BME280;9558;50.178;8.370;2022-08-19T12:46:57;97942.91;;;28.75;39.56
18858;BME280;9558;50.178;8.370;2022-08-19T12:49:24;97954.03;;;28.77;39.57
18858;BME280;9558;50.178;8.370;2022-08-19T12:51:50;97939.63;;;28.78;39.76
18858;BME280;9558;50.178;8.370;2022-08-19T12:54:17;97944.34;;;28.82;39.62
18858;BME280;9558;50.178;8.370;2022-08-19T12:56:43;97949.06;;;28.85;39.33
18858;BME280;9558;50.178;8.370;2022-08-19T12:59:10;97935.44;;;28.86;39.44
18858;BME280;9558;50.178;8.370;2022-08-19T13:01:37;97944.72;;;28.89;39.79
18858;BME280;9558;50.178;8.370;2022-08-19T13:04:05;97936.06;;;28.83;38.81
18858;BME280;9558;50.178;8.370;2022-08-19T13:06:31;97927.16;;;28.88;40.14
18858;BME280;9558;50.178;8.370;2022-08-19T13:08:58;97931.59;;;28.92;40.56
18858;BME280;9558;50.178;8.370;2022-08-19T13:11:25;97932.69;;;28.91;40.14
18858;BME280;9558;50.178;8.370;2022-08-19T13:13:52;97941.44;;;28.92;40.61
18858;BME280;9558;50.178;8.370;2022-08-19T13:16:20;97931.00;;;28.95;40.36